sensor_id;sensor_type;location;lat;lon;timestamp;P1;durP1;ratioP1;P2;durP2;ratioP2
4961;SDS011;2496;52.468;13.342;2022-10-30T00:02:07;23.90;;;17.47;;
4961;SDS011;2496;52.468;13.342;2022-10-30T00:04:35;32.50;;;16.37;;
4961;SDS011;2496;52.468;13.342;2022-10-30T00:07:03;32.80;;;17.33;;
4961;SDS011;2496;52.468;13.342;2022-10-30T00:09:32;23.23;;;17.23;;
4961;SDS011;2496;52.468;13.342;2022-10-30T00:12:01;31.00;;;18.10;;
4961;SDS011;2496;52.468;13.342;2022-10-30T00:14:28;25.60;;;17.47;;
4961;SDS011;2496;52.468;13.342;2022-10-30T00:16:55;36.43;;;19.17;;
4961;SDS011;2496;52.468;13.342;2022-10-30T00:19:23;24.67;;;16.87;;
4961;SDS011;2496;52.468;13.342;2022-10-30T00:21:50;33.40;;;17.93;;
4961;SDS011;2496;52.468;13.342;2022-10-30T00:24:17;33.30;;;18.23;;
4961;SDS011;2496;52.468;13.342;2022-10-30T00:26:44;30.27;;;17.20;;
4961;SDS011;2496;52.468;13.342;2022-10-30T00:29:11;29.10;;;16.90;;
4961;SDS011;2496;52.468;13.342;2022-10-30T00:31:38;30.70;;;17.63;;
4961;SDS011;2496;52.468;13.342;2022-10-30T00:34:05;31.70;;;16.13;;
4961;SDS011;2496;52.468;13.342;2022-10-30T00:36:33;21.53;;;17.00;;
4961;SDS011;2496;52.468;13.342;2022-10-30T00:39:00;24.90;;;17.23;;
4961;SDS011;2496;52.468;13.342;2022-10-30T00:41:28;25.13;;;16.70;;
4961;SDS011;2496;52.468;13.342;2022-10-30T00:43:54;27.50;;;17.20;;
4961;SDS011;2496;52.468;13.342;2022-10-30T00:46:23;25.67;;;18.40;;
4961;SDS011;2496;52.468;13.342;2022-10-30T00:48:58;20.87;;;16.47;;
4961;SDS011;2496;52.468;13.342;2022-10-30T00:51:30;31.77;;;17.10;;
4961;SDS011;2496;52.468;13.342;2022-10-30T00:54:01;37.33;;;18.17;;
4961;SDS011;2496;52.468;13.342;2022-10-30T00:56:31;32.50;;;17.40;;
4961;SDS011;2496;52.468;13.342;2022-10-30T00:59:00;30.40;;;17.80;;
4961;SDS011;2496;52.468;13.342;2022-10-30T01:01:31;34.60;;;17.77;;
4961;SDS011;2496;52.468;13.342;2022-10-30T01:04:01;26.53;;;17.63;;
4961;SDS011;2496;52.468;13.342;2022-10-30T01:06:31;48.67;;;19.00;;
4961;SDS011;2496;52.468;13.342;2022-10-30T01:09:02;27.80;;;17.63;;
4961;SDS011;2496;52.468;13.342;2022-10-30T01:11:29;28.80;;;17.37;;
4961;SDS011;2496;52.468;13.342;2022-10-30T01:13:57;35.97;;;18.40;;
4961;SDS011;2496;52.468;13.342;2022-10-30T01:19:24;26.30;;;18.23;;
4961;SDS011;2496;52.468;13.342;2022-10-30T01:22:08;27.23;;;20.10;;
4961;SDS011;2496;52.468;13.342;2022-10-30T01:24:48;29.70;;;18.30;;
4961;SDS011;2496;52.468;13.342;2022-10-30T01:27:26;36.97;;;21.63;;
4961;SDS011;2496;52.468;13.342;2022-10-30T01:30:06;27.03;;;19.60;;
4961;SDS011;2496;52.468;13.342;2022-10-30T01:32:45;33.57;;;18.40;;
4961;SDS011;2496;52.468;13.342;2022-10-30T01:35:22;29.57;;;19.00;;
4961;SDS011;2496;52.468;13.342;2022-10-30T01:37:55;36.30;;;20.30;;
4961;SDS011;2496;52.468;13.342;2022-10-30T01:40:29;26.87;;;19.47;;
4961;SDS011;2496;52.468;13.342;2022-10-30T01:42:58;31.50;;;18.97;;
4961;SDS011;2496;52.468;13.342;2022-10-30T01:45:30;36.20;;;18.90;;
4961;SDS011;2496;52.468;13.342;2022-10-30T01:48:18;27.70;;;18.80;;
4961;SDS011;2496;52.468;13.342;2022-10-30T01:51:10;31.23;;;18.77;;
4961;SDS011;2496;52.468;13.342;2022-10-30T01:53:46;34.40;;;18.17;;
4961;SDS011;2496;52.468;13.342;2022-10-30T01:56:24;36.67;;;20.63;;
4961;SDS011;2496;52.468;13.342;2022-10-30T01:59:02;37.23;;;20.70;;
4961;SDS011;2496;52.468;13.342;2022-10-30T02:01:36;32.43;;;19.93;;
4961;SDS011;2496;52.468;13.342;2022-10-30T02:04:05;32.13;;;19.03;;
4961;SDS011;2496;52.468;13.342;2022-10-30T02:06:34;33.10;;;20.73;;
4961;SDS011;2496;52.468;13.342;2022-10-30T02:09:01;27.80;;;17.90;;
4961;SDS011;2496;52.468;13.342;2022-10-30T02:11:31;35.93;;;19.43;;
4961;SDS011;2496;52.468;13.342;2022-10-30T02:14:01;31.67;;;19.00;;
4961;SDS011;2496;52.468;13.342;2022-10-30T02:16:30;25.53;;;18.30;;
4961;SDS011;2496;52.468;13.342;2022-10-30T02:19:00;29.47;;;17.67;;
4961;SDS011;2496;52.468;13.342;2022-10-30T02:21:28;30.70;;;17.93;;
4961;SDS011;2496;52.468;13.342;2022-10-30T02:23:56;30.10;;;17.60;;
4961;SDS011;2496;52.468;13.342;2022-10-30T02:26:23;31.17;;;17.53;;
4961;SDS011;2496;52.468;13.342;2022-10-30T02:28:50;30.53;;;17.33;;
4961;SDS011;2496;52.468;13.342;2022-10-30T02:31:17;28.13;;;15.93;;
4961;SDS011;2496;52.468;13.342;2022-10-30T02:33:44;32.23;;;16.40;;
4961;SDS011;2496;52.468;13.342;2022-10-30T02:36:12;26.37;;;17.13;;
4961;SDS011;2496;52.468;13.342;2022-10-30T02:38:41;25.87;;;18.40;;
4961;SDS011;2496;52.468;13.342;2022-10-30T02:41:09;37.40;;;17.90;;
4961;SDS011;2496;52.468;13.342;2022-10-30T02:43:36;22.67;;;16.67;;
4961;SDS011;2496;52.468;13.342;2022-10-30T02:46:04;24.20;;;18.07;;
4961;SDS011;2496;52.468;13.342;2022-10-30T02:48:31;31.00;;;17.87;;
4961;SDS011;2496;52.468;13.342;2022-10-30T02:50:58;38.40;;;17.80;;
4961;SDS011;2496;52.468;13.342;2022-10-30T02:53:25;27.03;;;17.57;;
4961;SDS011;2496;52.468;13.342;2022-10-30T02:55:54;30.90;;;17.90;;
4961;SDS011;2496;52.468;13.342;2022-10-30T02:58:22;27.17;;;16.70;;
4961;SDS011;2496;52.468;13.342;2022-10-30T03:00:49;26.97;;;16.40;;
4961;SDS011;2496;52.468;13.342;2022-10-30T03:03:16;41.77;;;18.00;;
4961;SDS011;2496;52.468;13.342;2022-10-30T03:05:43;22.37;;;16.13;;
4961;SDS011;2496;52.468;13.342;2022-10-30T03:08:10;31.43;;;17.70;;
4961;SDS011;2496;52.468;13.342;2022-10-30T03:10:38;23.03;;;17.33;;
4961;SDS011;2496;52.468;13.342;2022-10-30T03:13:07;26.60;;;16.67;;
4961;SDS011;2496;52.468;13.342;2022-10-30T03:15:34;31.90;;;16.30;;
4961;SDS011;2496;52.468;13.342;2022-10-30T03:18:01;23.90;;;16.17;;
4961;SDS011;2496;52.468;13.342;2022-10-30T03:20:28;31.87;;;15.63;;
4961;SDS011;2496;52.468;13.342;2022-10-30T03:22:55;42.57;;;18.00;;
4961;SDS011;2496;52.468;13.342;2022-10-30T03:25:22;26.87;;;15.40;;
4961;SDS011;2496;52.468;13.342;2022-10-30T03:27:49;26.13;;;16.07;;
4961;SDS011;2496;52.468;13.342;2022-10-30T03:30:19;31.17;;;17.67;;
4961;SDS011;2496;52.468;13.342;2022-10-30T03:32:46;25.23;;;16.30;;
4961;SDS011;2496;52.468;13.342;2022-10-30T03:35:13;29.83;;;16.57;;
4961;SDS011;2496;52.468;13.342;2022-10-30T03:37:41;30.30;;;17.30;;
4961;SDS011;2496;52.468;13.342;2022-10-30T03:40:08;42.83;;;16.73;;
4961;SDS011;2496;52.468;13.342;2022-10-30T03:42:38;23.50;;;16.13;;
4961;SDS011;2496;52.468;13.342;2022-10-30T03:45:06;28.77;;;17.40;;
4961;SDS011;2496;52.468;13.342;2022-10-30T03:47:36;27.30;;;17.00;;
4961;SDS011;2496;52.468;13.342;2022-10-30T03:50:05;28.43;;;16.90;;
4961;SDS011;2496;52.468;13.342;2022-10-30T03:52:33;26.17;;;16.17;;
4961;SDS011;2496;52.468;13.342;2022-10-30T03:55:00;24.00;;;16.63;;
4961;SDS011;2496;52.468;13.342;2022-10-30T03:57:27;30.63;;;16.57;;
4961;SDS011;2496;52.468;13.342;2022-10-30T03:59:54;32.67;;;16.60;;
4961;SDS011;2496;52.468;13.342;2022-10-30T04:02:21;29.57;;;17.60;;
4961;SDS011;2496;52.468;13.342;2022-10-30T04:04:50;46.67;;;18.23;;
4961;SDS011;2496;52.468;13.342;2022-10-30T04:07:17;30.40;;;15.70;;
4961;SDS011;2496;52.468;13.342;2022-10-30T04:09:44;24.60;;;15.20;;
4961;SDS011;2496;52.468;13.342;2022-10-30T04:12:11;27.00;;;15.70;;
4961;SDS011;2496;52.468;13.342;2022-10-30T04:14:38;27.87;;;16.43;;
4961;SDS011;2496;52.468;13.342;2022-10-30T04:17:05;28.23;;;16.70;;
4961;SDS011;2496;52.468;13.342;2022-10-30T04:19:33;28.60;;;16.73;;
4961;SDS011;2496;52.468;13.342;2022-10-30T04:22:01;35.13;;;16.30;;
4961;SDS011;2496;52.468;13.342;2022-10-30T04:24:28;24.90;;;14.67;;
4961;SDS011;2496;52.468;13.342;2022-10-30T04:26:55;25.80;;;16.00;;
4961;SDS011;2496;52.468;13.342;2022-10-30T04:29:22;22.83;;;15.50;;
4961;SDS011;2496;52.468;13.342;2022-10-30T04:31:49;31.40;;;17.57;;
4961;SDS011;2496;52.468;13.342;2022-10-30T04:34:16;25.23;;;17.20;;
4961;SDS011;2496;52.468;13.342;2022-10-30T04:36:43;31.70;;;16.13;;
4961;SDS011;2496;52.468;13.342;2022-10-30T04:39:12;25.43;;;15.43;;
4961;SDS011;2496;52.468;13.342;2022-10-30T04:41:39;27.90;;;16.50;;
4961;SDS011;2496;52.468;13.342;2022-10-30T04:44:07;24.57;;;15.73;;
4961;SDS011;2496;52.468;13.342;2022-10-30T04:46:33;27.20;;;15.90;;
4961;SDS011;2496;52.468;13.342;2022-10-30T04:49:00;30.80;;;16.03;;
4961;SDS011;2496;52.468;13.342;2022-10-30T04:51:27;25.63;;;16.17;;
4961;SDS011;2496;52.468;13.342;2022-10-30T04:53:54;30.90;;;16.17;;
4961;SDS011;2496;52.468;13.342;2022-10-30T04:56:24;24.63;;;15.73;;
4961;SDS011;2496;52.468;13.342;2022-10-30T04:58:50;21.87;;;15.80;;
4961;SDS011;2496;52.468;13.342;2022-10-30T05:01:18;21.40;;;14.70;;
4961;SDS011;2496;52.468;13.342;2022-10-30T05:03:45;31.60;;;16.80;;
4961;SDS011;2496;52.468;13.342;2022-10-30T05:06:12;26.97;;;15.77;;
4961;SDS011;2496;52.468;13.342;2022-10-30T05:08:44;26.40;;;15.70;;
4961;SDS011;2496;52.468;13.342;2022-10-30T05:11:11;29.30;;;15.63;;
4961;SDS011;2496;52.468;13.342;2022-10-30T05:13:39;34.60;;;16.37;;
4961;SDS011;2496;52.468;13.342;2022-10-30T05:16:06;28.63;;;16.10;;
4961;SDS011;2496;52.468;13.342;2022-10-30T05:18:33;26.47;;;15.83;;
4961;SDS011;2496;52.468;13.342;2022-10-30T05:21:00;31.67;;;16.27;;
4961;SDS011;2496;52.468;13.342;2022-10-30T05:23:27;22.73;;;15.00;;
4961;SDS011;2496;52.468;13.342;2022-10-30T05:25:54;26.80;;;16.23;;
4961;SDS011;2496;52.468;13.342;2022-10-30T05:28:21;28.13;;;16.30;;
4961;SDS011;2496;52.468;13.342;2022-10-30T05:30:51;26.90;;;15.27;;
4961;SDS011;2496;52.468;13.342;2022-10-30T05:33:18;23.80;;;14.90;;
4961;SDS011;2496;52.468;13.342;2022-10-30T05:35:45;22.70;;;14.47;;
4961;SDS011;2496;52.468;13.342;2022-10-30T05:38:12;24.47;;;15.07;;
4961;SDS011;2496;52.468;13.342;2022-10-30T05:40:39;22.50;;;14.10;;
4961;SDS011;2496;52.468;13.342;2022-10-30T05:43:06;32.80;;;15.43;;
4961;SDS011;2496;52.468;13.342;2022-10-30T05:45:33;31.70;;;14.97;;
4961;SDS011;2496;52.468;13.342;2022-10-30T05:48:02;22.50;;;14.30;;
4961;SDS011;2496;52.468;13.342;2022-10-30T05:50:30;27.07;;;14.87;;
4961;SDS011;2496;52.468;13.342;2022-10-30T05:52:58;27.03;;;15.10;;
4961;SDS011;2496;52.468;13.342;2022-10-30T05:55:27;27.20;;;14.60;;
4961;SDS011;2496;52.468;13.342;2022-10-30T05:57:54;30.97;;;16.33;;
4961;SDS011;2496;52.468;13.342;2022-10-30T06:00:22;30.13;;;13.67;;
4961;SDS011;2496;52.468;13.342;2022-10-30T06:02:49;28.87;;;14.90;;
4961;SDS011;2496;52.468;13.342;2022-10-30T06:05:17;28.67;;;14.33;;
4961;SDS011;2496;52.468;13.342;2022-10-30T06:07:44;23.33;;;14.77;;
4961;SDS011;2496;52.468;13.342;2022-10-30T06:10:11;21.80;;;13.20;;
4961;SDS011;2496;52.468;13.342;2022-10-30T06:12:37;24.70;;;14.27;;
4961;SDS011;2496;52.468;13.342;2022-10-30T06:15:05;27.93;;;13.47;;
4961;SDS011;2496;52.468;13.342;2022-10-30T06:17:32;25.33;;;11.77;;
4961;SDS011;2496;52.468;13.342;2022-10-30T06:19:59;24.63;;;13.73;;
4961;SDS011;2496;52.468;13.342;2022-10-30T06:22:27;24.03;;;12.90;;
4961;SDS011;2496;52.468;13.342;2022-10-30T06:24:54;24.10;;;13.10;;
4961;SDS011;2496;52.468;13.342;2022-10-30T06:27:21;21.20;;;12.63;;
4961;SDS011;2496;52.468;13.342;2022-10-30T06:29:48;22.33;;;13.60;;
4961;SDS011;2496;52.468;13.342;2022-10-30T06:32:14;18.73;;;12.00;;
4961;SDS011;2496;52.468;13.342;2022-10-30T06:34:41;23.30;;;13.33;;
4961;SDS011;2496;52.468;13.342;2022-10-30T06:37:08;23.80;;;13.17;;
4961;SDS011;2496;52.468;13.342;2022-10-30T06:39:37;17.63;;;12.60;;
4961;SDS011;2496;52.468;13.342;2022-10-30T06:42:04;33.93;;;14.60;;
4961;SDS011;2496;52.468;13.342;2022-10-30T06:44:30;22.13;;;13.43;;
4961;SDS011;2496;52.468;13.342;2022-10-30T06:46:57;27.20;;;13.37;;
4961;SDS011;2496;52.468;13.342;2022-10-30T06:49:24;29.20;;;13.53;;
4961;SDS011;2496;52.468;13.342;2022-10-30T06:51:51;26.27;;;12.53;;
4961;SDS011;2496;52.468;13.342;2022-10-30T06:54:18;21.93;;;13.83;;
4961;SDS011;2496;52.468;13.342;2022-10-30T06:56:49;23.63;;;12.80;;
4961;SDS011;2496;52.468;13.342;2022-10-30T06:59:16;24.80;;;12.00;;
4961;SDS011;2496;52.468;13.342;2022-10-30T07:01:43;26.17;;;12.30;;
4961;SDS011;2496;52.468;13.342;2022-10-30T07:04:10;19.63;;;12.27;;
4961;SDS011;2496;52.468;13.342;2022-10-30T07:06:37;19.77;;;14.20;;
4961;SDS011;2496;52.468;13.342;2022-10-30T07:09:04;25.03;;;10.87;;
4961;SDS011;2496;52.468;13.342;2022-10-30T07:11:35;25.53;;;11.93;;
4961;SDS011;2496;52.468;13.342;2022-10-30T07:14:05;27.30;;;12.23;;
4961;SDS011;2496;52.468;13.342;2022-10-30T07:16:35;17.27;;;10.60;;
4961;SDS011;2496;52.468;13.342;2022-10-30T07:19:02;29.77;;;12.83;;
4961;SDS011;2496;52.468;13.342;2022-10-30T07:21:29;17.83;;;12.30;;
4961;SDS011;2496;52.468;13.342;2022-10-30T07:23:56;21.80;;;11.60;;
4961;SDS011;2496;52.468;13.342;2022-10-30T07:26:23;25.30;;;12.93;;
4961;SDS011;2496;52.468;13.342;2022-10-30T07:28:50;20.63;;;11.93;;
4961;SDS011;2496;52.468;13.342;2022-10-30T07:31:18;18.77;;;11.47;;
4961;SDS011;2496;52.468;13.342;2022-10-30T07:33:45;25.17;;;12.13;;
4961;SDS011;2496;52.468;13.342;2022-10-30T07:36:12;19.00;;;12.90;;
4961;SDS011;2496;52.468;13.342;2022-10-30T07:38:39;28.13;;;14.37;;
4961;SDS011;2496;52.468;13.342;2022-10-30T07:41:05;17.17;;;11.60;;
4961;SDS011;2496;52.468;13.342;2022-10-30T07:43:32;23.17;;;12.20;;
4961;SDS011;2496;52.468;13.342;2022-10-30T07:45:59;27.10;;;13.13;;
4961;SDS011;2496;52.468;13.342;2022-10-30T07:48:28;20.90;;;11.30;;
4961;SDS011;2496;52.468;13.342;2022-10-30T07:50:55;25.30;;;13.30;;
4961;SDS011;2496;52.468;13.342;2022-10-30T07:53:22;17.53;;;12.17;;
4961;SDS011;2496;52.468;13.342;2022-10-30T07:55:49;21.07;;;10.60;;
4961;SDS011;2496;52.468;13.342;2022-10-30T07:58:16;22.50;;;12.87;;
4961;SDS011;2496;52.468;13.342;2022-10-30T08:00:42;28.53;;;13.13;;
4961;SDS011;2496;52.468;13.342;2022-10-30T08:03:09;24.30;;;12.30;;
4961;SDS011;2496;52.468;13.342;2022-10-30T08:05:38;21.03;;;13.03;;
4961;SDS011;2496;52.468;13.342;2022-10-30T08:08:05;22.23;;;12.90;;
4961;SDS011;2496;52.468;13.342;2022-10-30T08:10:32;23.80;;;11.67;;
4961;SDS011;2496;52.468;13.342;2022-10-30T08:12:59;16.07;;;12.03;;
4961;SDS011;2496;52.468;13.342;2022-10-30T08:15:26;20.00;;;12.23;;
4961;SDS011;2496;52.468;13.342;2022-10-30T08:17:53;21.87;;;12.97;;
4961;SDS011;2496;52.468;13.342;2022-10-30T08:20:23;19.83;;;11.27;;
4961;SDS011;2496;52.468;13.342;2022-10-30T08:22:51;21.20;;;11.53;;
4961;SDS011;2496;52.468;13.342;2022-10-30T08:25:20;17.47;;;12.13;;
4961;SDS011;2496;52.468;13.342;2022-10-30T08:27:52;28.60;;;12.97;;
4961;SDS011;2496;52.468;13.342;2022-10-30T08:30:20;19.23;;;11.90;;
4961;SDS011;2496;52.468;13.342;2022-10-30T08:32:47;22.03;;;10.97;;
4961;SDS011;2496;52.468;13.342;2022-10-30T08:35:14;22.73;;;11.50;;
4961;SDS011;2496;52.468;13.342;2022-10-30T08:37:41;15.87;;;10.73;;
4961;SDS011;2496;52.468;13.342;2022-10-30T08:40:10;27.50;;;12.57;;
4961;SDS011;2496;52.468;13.342;2022-10-30T08:42:37;20.63;;;12.17;;
4961;SDS011;2496;52.468;13.342;2022-10-30T08:45:04;17.40;;;9.90;;
4961;SDS011;2496;52.468;13.342;2022-10-30T08:47:32;24.27;;;10.77;;
4961;SDS011;2496;52.468;13.342;2022-10-30T08:49:59;30.57;;;11.33;;
4961;SDS011;2496;52.468;13.342;2022-10-30T08:52:26;15.90;;;9.83;;
4961;SDS011;2496;52.468;13.342;2022-10-30T08:54:53;20.73;;;9.90;;
4961;SDS011;2496;52.468;13.342;2022-10-30T08:57:21;16.73;;;10.00;;
4961;SDS011;2496;52.468;13.342;2022-10-30T08:59:48;16.83;;;9.83;;
4961;SDS011;2496;52.468;13.342;2022-10-30T09:02:15;20.93;;;9.70;;
4961;SDS011;2496;52.468;13.342;2022-10-30T09:04:42;14.43;;;10.03;;
4961;SDS011;2496;52.468;13.342;2022-10-30T09:07:08;16.93;;;8.57;;
4961;SDS011;2496;52.468;13.342;2022-10-30T09:09:35;23.53;;;9.43;;
4961;SDS011;2496;52.468;13.342;2022-10-30T09:12:02;19.43;;;8.60;;
4961;SDS011;2496;52.468;13.342;2022-10-30T09:14:31;23.83;;;9.30;;
4961;SDS011;2496;52.468;13.342;2022-10-30T09:16:58;21.33;;;9.07;;
4961;SDS011;2496;52.468;13.342;2022-10-30T09:19:25;21.20;;;8.07;;
4961;SDS011;2496;52.468;13.342;2022-10-30T09:21:52;24.73;;;9.67;;
4961;SDS011;2496;52.468;13.342;2022-10-30T09:24:19;22.03;;;10.00;;
4961;SDS011;2496;52.468;13.342;2022-10-30T09:26:46;24.27;;;8.30;;
4961;SDS011;2496;52.468;13.342;2022-10-30T09:29:13;15.30;;;8.23;;
4961;SDS011;2496;52.468;13.342;2022-10-30T09:31:41;17.57;;;8.77;;
4961;SDS011;2496;52.468;13.342;2022-10-30T09:34:08;20.53;;;9.00;;
4961;SDS011;2496;52.468;13.342;2022-10-30T09:36:35;14.20;;;8.10;;
4961;SDS011;2496;52.468;13.342;2022-10-30T09:39:02;18.37;;;7.80;;
4961;SDS011;2496;52.468;13.342;2022-10-30T09:41:38;19.80;;;8.30;;
4961;SDS011;2496;52.468;13.342;2022-10-30T09:44:19;14.37;;;8.60;;
4961;SDS011;2496;52.468;13.342;2022-10-30T09:47:04;23.70;;;10.00;;
4961;SDS011;2496;52.468;13.342;2022-10-30T09:49:45;15.27;;;7.90;;
4961;SDS011;2496;52.468;13.342;2022-10-30T09:52:26;13.23;;;8.40;;
4961;SDS011;2496;52.468;13.342;2022-10-30T09:54:55;18.97;;;9.03;;
4961;SDS011;2496;52.468;13.342;2022-10-30T09:57:35;14.40;;;7.27;;
4961;SDS011;2496;52.468;13.342;2022-10-30T10:00:11;13.40;;;8.63;;
4961;SDS011;2496;52.468;13.342;2022-10-30T10:02:49;13.43;;;7.80;;
4961;SDS011;2496;52.468;13.342;2022-10-30T10:05:21;12.43;;;7.30;;
4961;SDS011;2496;52.468;13.342;2022-10-30T10:07:51;15.80;;;7.30;;
4961;SDS011;2496;52.468;13.342;2022-10-30T10:10:23;20.67;;;7.23;;
4961;SDS011;2496;52.468;13.342;2022-10-30T10:13:00;16.37;;;7.33;;
4961;SDS011;2496;52.468;13.342;2022-10-30T10:15:32;14.60;;;7.17;;
4961;SDS011;2496;52.468;13.342;2022-10-30T10:18:10;15.10;;;7.33;;
4961;SDS011;2496;52.468;13.342;2022-10-30T10:20:42;11.40;;;6.93;;
4961;SDS011;2496;52.468;13.342;2022-10-30T10:23:15;14.27;;;6.50;;
4961;SDS011;2496;52.468;13.342;2022-10-30T10:25:44;10.90;;;6.60;;
4961;SDS011;2496;52.468;13.342;2022-10-30T10:28:20;18.60;;;7.33;;
4961;SDS011;2496;52.468;13.342;2022-10-30T10:31:02;13.10;;;6.80;;
4961;SDS011;2496;52.468;13.342;2022-10-30T10:33:37;21.33;;;7.80;;
4961;SDS011;2496;52.468;13.342;2022-10-30T10:36:19;14.80;;;6.80;;
4961;SDS011;2496;52.468;13.342;2022-10-30T10:41:50;23.17;;;8.17;;
4961;SDS011;2496;52.468;13.342;2022-10-30T10:44:27;20.43;;;7.20;;
4961;SDS011;2496;52.468;13.342;2022-10-30T10:47:07;12.20;;;7.07;;
4961;SDS011;2496;52.468;13.342;2022-10-30T10:49:49;17.70;;;6.10;;
4961;SDS011;2496;52.468;13.342;2022-10-30T10:52:29;16.53;;;6.70;;
4961;SDS011;2496;52.468;13.342;2022-10-30T10:55:01;21.10;;;6.90;;
4961;SDS011;2496;52.468;13.342;2022-10-30T10:57:33;13.67;;;6.97;;
4961;SDS011;2496;52.468;13.342;2022-10-30T11:00:03;18.17;;;6.30;;
4961;SDS011;2496;52.468;13.342;2022-10-30T11:02:33;12.57;;;6.33;;
4961;SDS011;2496;52.468;13.342;2022-10-30T11:05:07;14.20;;;7.27;;
4961;SDS011;2496;52.468;13.342;2022-10-30T11:07:45;13.30;;;6.03;;
4961;SDS011;2496;52.468;13.342;2022-10-30T11:10:14;12.87;;;6.47;;
4961;SDS011;2496;52.468;13.342;2022-10-30T11:12:43;15.03;;;6.60;;
4961;SDS011;2496;52.468;13.342;2022-10-30T11:15:28;16.40;;;6.83;;
4961;SDS011;2496;52.468;13.342;2022-10-30T11:18:03;16.90;;;5.93;;
4961;SDS011;2496;52.468;13.342;2022-10-30T11:20:35;10.97;;;6.10;;
4961;SDS011;2496;52.468;13.342;2022-10-30T11:25:58;23.77;;;6.73;;
4961;SDS011;2496;52.468;13.342;2022-10-30T11:28:32;12.67;;;6.67;;
4961;SDS011;2496;52.468;13.342;2022-10-30T11:31:17;25.40;;;7.23;;
4961;SDS011;2496;52.468;13.342;2022-10-30T11:33:46;14.00;;;6.60;;
4961;SDS011;2496;52.468;13.342;2022-10-30T11:36:15;27.17;;;7.20;;
4961;SDS011;2496;52.468;13.342;2022-10-30T11:38:44;14.17;;;6.77;;
4961;SDS011;2496;52.468;13.342;2022-10-30T11:41:11;21.27;;;6.90;;
4961;SDS011;2496;52.468;13.342;2022-10-30T11:43:39;15.20;;;6.00;;
4961;SDS011;2496;52.468;13.342;2022-10-30T11:46:07;18.90;;;6.63;;
4961;SDS011;2496;52.468;13.342;2022-10-30T11:48:37;14.27;;;6.60;;
4961;SDS011;2496;52.468;13.342;2022-10-30T11:51:05;12.40;;;5.83;;
4961;SDS011;2496;52.468;13.342;2022-10-30T11:53:33;16.33;;;5.50;;
4961;SDS011;2496;52.468;13.342;2022-10-30T11:56:09;16.43;;;6.80;;
4961;SDS011;2496;52.468;13.342;2022-10-30T11:58:41;15.73;;;7.10;;
4961;SDS011;2496;52.468;13.342;2022-10-30T12:01:13;16.30;;;7.50;;
4961;SDS011;2496;52.468;13.342;2022-10-30T12:03:45;20.70;;;6.00;;
4961;SDS011;2496;52.468;13.342;2022-10-30T12:06:15;12.03;;;5.90;;
4961;SDS011;2496;52.468;13.342;2022-10-30T12:08:58;14.37;;;6.50;;
4961;SDS011;2496;52.468;13.342;2022-10-30T12:11:28;14.93;;;6.20;;
4961;SDS011;2496;52.468;13.342;2022-10-30T12:13:56;9.77;;;5.43;;
4961;SDS011;2496;52.468;13.342;2022-10-30T12:16:24;15.27;;;6.37;;
4961;SDS011;2496;52.468;13.342;2022-10-30T12:18:53;24.90;;;7.43;;
4961;SDS011;2496;52.468;13.342;2022-10-30T12:21:26;15.97;;;6.00;;
4961;SDS011;2496;52.468;13.342;2022-10-30T12:23:55;11.30;;;6.20;;
4961;SDS011;2496;52.468;13.342;2022-10-30T12:26:27;19.20;;;6.20;;
4961;SDS011;2496;52.468;13.342;2022-10-30T12:28:57;16.53;;;5.83;;
4961;SDS011;2496;52.468;13.342;2022-10-30T12:31:29;16.40;;;6.40;;
4961;SDS011;2496;52.468;13.342;2022-10-30T12:34:02;12.07;;;5.97;;
4961;SDS011;2496;52.468;13.342;2022-10-30T12:36:39;18.23;;;8.20;;
4961;SDS011;2496;52.468;13.342;2022-10-30T12:39:13;18.97;;;6.70;;
4961;SDS011;2496;52.468;13.342;2022-10-30T12:41:50;20.50;;;7.97;;
4961;SDS011;2496;52.468;13.342;2022-10-30T12:44:25;25.73;;;8.77;;
4961;SDS011;2496;52.468;13.342;2022-10-30T12:46:54;17.23;;;6.07;;
4961;SDS011;2496;52.468;13.342;2022-10-30T12:49:27;16.53;;;6.00;;
4961;SDS011;2496;52.468;13.342;2022-10-30T12:52:02;9.70;;;5.57;;
4961;SDS011;2496;52.468;13.342;2022-10-30T12:54:38;12.13;;;5.87;;
4961;SDS011;2496;52.468;13.342;2022-10-30T12:57:11;24.80;;;6.77;;
4961;SDS011;2496;52.468;13.342;2022-10-30T12:59:44;12.40;;;6.17;;
4961;SDS011;2496;52.468;13.342;2022-10-30T13:02:22;16.13;;;5.77;;
4961;SDS011;2496;52.468;13.342;2022-10-30T13:05:03;14.93;;;6.03;;
4961;SDS011;2496;52.468;13.342;2022-10-30T13:07:40;17.17;;;7.07;;
4961;SDS011;2496;52.468;13.342;2022-10-30T13:10:15;9.43;;;6.40;;
4961;SDS011;2496;52.468;13.342;2022-10-30T13:12:51;18.57;;;7.57;;
4961;SDS011;2496;52.468;13.342;2022-10-30T13:15:26;14.37;;;6.47;;
4961;SDS011;2496;52.468;13.342;2022-10-30T13:17:56;18.73;;;7.00;;
4961;SDS011;2496;52.468;13.342;2022-10-30T13:20:24;13.93;;;5.50;;
4961;SDS011;2496;52.468;13.342;2022-10-30T13:22:53;13.20;;;5.50;;
4961;SDS011;2496;52.468;13.342;2022-10-30T13:25:26;28.70;;;8.47;;
4961;SDS011;2496;52.468;13.342;2022-10-30T13:28:00;20.43;;;7.83;;
4961;SDS011;2496;52.468;13.342;2022-10-30T13:30:33;18.00;;;7.07;;
4961;SDS011;2496;52.468;13.342;2022-10-30T13:33:06;25.03;;;6.20;;
4961;SDS011;2496;52.468;13.342;2022-10-30T13:35:41;17.10;;;6.63;;
4961;SDS011;2496;52.468;13.342;2022-10-30T13:38:18;18.83;;;7.90;;
4961;SDS011;2496;52.468;13.342;2022-10-30T13:41:03;12.50;;;5.90;;
4961;SDS011;2496;52.468;13.342;2022-10-30T13:43:36;19.47;;;6.00;;
4961;SDS011;2496;52.468;13.342;2022-10-30T13:46:15;12.73;;;7.10;;
4961;SDS011;2496;52.468;13.342;2022-10-30T13:48:53;13.80;;;6.40;;
4961;SDS011;2496;52.468;13.342;2022-10-30T13:51:34;13.30;;;6.17;;
4961;SDS011;2496;52.468;13.342;2022-10-30T13:54:09;16.23;;;6.27;;
4961;SDS011;2496;52.468;13.342;2022-10-30T13:56:43;10.83;;;5.60;;
4961;SDS011;2496;52.468;13.342;2022-10-30T13:59:19;19.97;;;6.70;;
4961;SDS011;2496;52.468;13.342;2022-10-30T14:01:55;15.23;;;7.70;;
4961;SDS011;2496;52.468;13.342;2022-10-30T14:04:28;16.63;;;6.60;;
4961;SDS011;2496;52.468;13.342;2022-10-30T14:07:06;16.73;;;7.03;;
4961;SDS011;2496;52.468;13.342;2022-10-30T14:09:47;16.47;;;6.60;;
4961;SDS011;2496;52.468;13.342;2022-10-30T14:15:25;20.27;;;7.63;;
4961;SDS011;2496;52.468;13.342;2022-10-30T14:20:54;27.07;;;7.13;;
4961;SDS011;2496;52.468;13.342;2022-10-30T14:23:22;13.63;;;7.70;;
4961;SDS011;2496;52.468;13.342;2022-10-30T14:26:11;14.60;;;8.17;;
4961;SDS011;2496;52.468;13.342;2022-10-30T14:28:47;19.93;;;8.30;;
4961;SDS011;2496;52.468;13.342;2022-10-30T14:31:16;19.00;;;7.40;;
4961;SDS011;2496;52.468;13.342;2022-10-30T14:33:46;35.10;;;8.17;;
4961;SDS011;2496;52.468;13.342;2022-10-30T14:36:20;18.83;;;8.60;;
4961;SDS011;2496;52.468;13.342;2022-10-30T14:38:51;15.23;;;6.70;;
4961;SDS011;2496;52.468;13.342;2022-10-30T14:41:34;15.43;;;6.13;;
4961;SDS011;2496;52.468;13.342;2022-10-30T14:47:42;14.83;;;6.80;;
4961;SDS011;2496;52.468;13.342;2022-10-30T14:50:19;20.37;;;6.67;;
4961;SDS011;2496;52.468;13.342;2022-10-30T14:53:04;15.13;;;6.67;;
4961;SDS011;2496;52.468;13.342;2022-10-30T14:55:47;18.17;;;7.70;;
4961;SDS011;2496;52.468;13.342;2022-10-30T14:58:21;14.70;;;6.53;;
4961;SDS011;2496;52.468;13.342;2022-10-30T15:00:53;27.03;;;6.53;;
4961;SDS011;2496;52.468;13.342;2022-10-30T15:03:41;18.03;;;6.17;;
4961;SDS011;2496;52.468;13.342;2022-10-30T15:06:19;21.67;;;7.13;;
4961;SDS011;2496;52.468;13.342;2022-10-30T15:09:09;21.07;;;7.43;;
4961;SDS011;2496;52.468;13.342;2022-10-30T15:12:01;15.53;;;7.17;;
4961;SDS011;2496;52.468;13.342;2022-10-30T15:14:39;22.60;;;10.47;;
4961;SDS011;2496;52.468;13.342;2022-10-30T15:17:21;18.50;;;10.47;;
4961;SDS011;2496;52.468;13.342;2022-10-30T15:19:58;28.77;;;10.90;;